Terminal Aerodrome Forecast
Issued by NWS Northern Indiana

Home | Current Version | Previous Version | Text Only | Print | Product List | Glossary Off
Versions: 1 2 3 4 5 6 7 8 9 10 11 12 13 14 15 16 17 18

000
FTUS43 KIWX 261132
TAFFWA
TAF
KFWA 261132Z 2612/2712 00000KT 3SM BR SCT003 BKN100
     FM261300 VRB03KT P6SM SCT070 BKN200
     FM270700 VRB03KT P6SM BKN080=

USA.gov is the U.S. government's official web portal to all federal, state and local government web resources and services.